createdAt,value
2022-10-23T00:01:15.509Z,100524.28
2022-10-23T00:06:19.645Z,100529.56
2022-10-23T00:11:23.512Z,100524.66
2022-10-23T00:16:26.216Z,100522.72
2022-10-23T00:21:30.404Z,100512.81
2022-10-23T00:26:33.053Z,100505.00
2022-10-23T00:31:35.698Z,100509.97
2022-10-23T00:36:39.708Z,100509.00
2022-10-23T00:41:42.919Z,100512.19
2022-10-23T00:46:46.272Z,100506.81
2022-10-23T00:51:51.741Z,100500.59
2022-10-23T00:56:55.638Z,100502.44
2022-10-23T01:01:58.389Z,100505.97
2022-10-23T01:07:06.609Z,100503.41
2022-10-23T01:12:11.480Z,100515.50
2022-10-23T01:17:16.723Z,100514.50
2022-10-23T01:22:29.405Z,100513.91
2022-10-23T01:27:33.900Z,100511.47
2022-10-23T01:32:41.115Z,100503.41
2022-10-23T01:37:46.280Z,100506.09
2022-10-23T01:42:53.894Z,100494.72
2022-10-23T01:47:59.687Z,100487.75
2022-10-23T01:53:02.459Z,100484.69
2022-10-23T01:58:07.306Z,100489.19
2022-10-23T02:03:14.700Z,100495.09
2022-10-23T02:08:17.416Z,100488.50
2022-10-23T02:13:24.448Z,100487.63
2022-10-23T02:18:31.658Z,100485.44
2022-10-23T02:23:36.221Z,100479.59
2022-10-23T02:28:41.619Z,100480.53
2022-10-23T02:33:45.848Z,100476.53
2022-10-23T02:38:48.542Z,100471.50
2022-10-23T02:43:58.463Z,100463.81
2022-10-23T02:49:05.449Z,100466.75
2022-10-23T02:54:09.716Z,100478.97
2022-10-23T02:59:18.719Z,100483.34
2022-10-23T03:04:22.295Z,100481.25
2022-10-23T03:09:26.969Z,100467.72
2022-10-23T03:14:31.016Z,100471.75
2022-10-23T03:19:33.677Z,100469.78
2022-10-23T03:24:39.299Z,100471.63
2022-10-23T03:29:43.551Z,100467.44
2022-10-23T03:34:46.289Z,100465.94
2022-10-23T03:39:48.948Z,100477.03
2022-10-23T03:44:53.063Z,100472.75
2022-10-23T03:49:55.819Z,100461.41
2022-10-23T03:54:59.091Z,100467.25
2022-10-23T04:00:03.486Z,100452.38
2022-10-23T04:05:08.791Z,100441.47
2022-10-23T04:10:11.508Z,100459.16
2022-10-23T04:15:16.233Z,100462.09
2022-10-23T04:20:21.731Z,100461.59
2022-10-23T04:25:24.421Z,100465.50
2022-10-23T04:30:28.499Z,100470.94
2022-10-23T04:35:31.270Z,100481.81
2022-10-23T04:40:33.933Z,100473.88
2022-10-23T04:45:37.924Z,100461.56
2022-10-23T04:50:40.851Z,100461.69
2022-10-23T04:56:02.285Z,100459.06
2022-10-23T05:01:22.590Z,100462.00
2022-10-23T05:06:25.418Z,100455.91
2022-10-23T05:11:47.492Z,100463.22
2022-10-23T05:16:53.041Z,100446.47
2022-10-23T05:21:56.188Z,100442.34
2022-10-23T05:27:05.305Z,100440.63
2022-10-23T05:32:10.173Z,100439.88
2022-10-23T05:37:13.993Z,100437.28
2022-10-23T05:42:16.973Z,100444.59
2022-10-23T05:47:21.050Z,100440.22
2022-10-23T05:52:47.366Z,100440.34
2022-10-23T05:58:23.482Z,100443.03
2022-10-23T06:03:46.431Z,100439.59
2022-10-23T06:08:49.135Z,100437.97
2022-10-23T06:13:53.895Z,100440.78
2022-10-23T06:19:00.177Z,100441.75
2022-10-23T06:24:03.123Z,100439.06
2022-10-23T06:29:11.061Z,100445.41
2022-10-23T06:34:17.027Z,100437.47
2022-10-23T06:39:22.406Z,100437.38
2022-10-23T06:44:45.371Z,100451.53
2022-10-23T06:49:53.859Z,100454.19
2022-10-23T06:54:56.629Z,100461.19
2022-10-23T07:00:01.724Z,100454.97
2022-10-23T07:05:13.884Z,100455.81
2022-10-23T07:10:17.677Z,100458.66
2022-10-23T07:15:23.599Z,100451.56
2022-10-23T07:20:27.866Z,100443.91
2022-10-23T07:25:30.568Z,100439.53
2022-10-23T07:30:36.211Z,100444.31
2022-10-23T07:35:41.716Z,100452.63
2022-10-23T07:40:47.760Z,100454.94
2022-10-23T07:45:53.176Z,100447.50
2022-10-23T07:51:08.016Z,100453.50
2022-10-23T07:56:15.751Z,100459.66
2022-10-23T08:01:38.492Z,100455.66
2022-10-23T08:06:42.773Z,100451.25
2022-10-23T08:11:45.722Z,100452.28
2022-10-23T08:16:52.335Z,100446.16
2022-10-23T08:21:57.250Z,100422.16
2022-10-23T08:27:00.044Z,100404.88
2022-10-23T08:32:05.676Z,100406.47
2022-10-23T08:37:18.809Z,100405.25
2022-10-23T08:42:22.459Z,100398.94
2022-10-23T08:47:27.479Z,100414.78
2022-10-23T08:53:15.195Z,100414.44
2022-10-23T08:58:19.504Z,100415.28
2022-10-23T09:03:22.244Z,100396.41
2022-10-23T09:08:35.392Z,100406.28
2022-10-23T09:14:04.844Z,100432.50
2022-10-23T09:19:12.661Z,100437.66
2022-10-23T09:24:18.514Z,100424.13
2022-10-23T09:29:24.062Z,100408.75
2022-10-23T09:34:27.498Z,100412.03
2022-10-23T09:39:32.227Z,100411.94
2022-10-23T09:44:34.851Z,100417.19
2022-10-23T09:49:40.216Z,100415.97
2022-10-23T09:54:47.473Z,100415.13
2022-10-23T09:59:52.094Z,100409.75
2022-10-23T10:04:55.064Z,100412.19
2022-10-23T10:09:59.130Z,100411.97
2022-10-23T10:15:09.759Z,100401.94
2022-10-23T10:20:43.730Z,100381.94
2022-10-23T10:25:52.255Z,100382.91
2022-10-23T10:31:00.509Z,100363.38
2022-10-23T10:36:04.317Z,100358.38
2022-10-23T10:41:19.927Z,100361.69
2022-10-23T10:46:24.912Z,100357.03
2022-10-23T10:51:30.399Z,100344.22
2022-10-23T10:56:35.920Z,100335.31
2022-10-23T11:01:40.831Z,100327.63
2022-10-23T11:06:44.518Z,100324.44
2022-10-23T11:11:48.873Z,100328.00
2022-10-23T11:16:52.226Z,100315.28
2022-10-23T11:21:57.939Z,100305.28
2022-10-23T11:27:23.436Z,100302.97
2022-10-23T11:32:38.028Z,100289.81
2022-10-23T11:37:40.838Z,100295.16
2022-10-23T11:42:49.142Z,100287.22
2022-10-23T11:47:57.453Z,100286.59
2022-10-23T11:53:14.247Z,100275.97
2022-10-23T11:58:23.275Z,100257.06
2022-10-23T12:03:29.795Z,100247.25
2022-10-23T12:08:33.604Z,100228.84
2022-10-23T12:13:47.369Z,100215.41
2022-10-23T12:18:52.887Z,100202.34
2022-10-23T12:24:10.402Z,100197.06
2022-10-23T12:29:21.181Z,100200.94
2022-10-23T12:34:30.642Z,100194.00
2022-10-23T12:39:33.928Z,100189.97
2022-10-23T12:44:37.911Z,100195.50
2022-10-23T12:49:40.588Z,100190.75
2022-10-23T12:54:43.262Z,100177.66
2022-10-23T12:59:47.268Z,100164.31
2022-10-23T13:04:50.235Z,100156.72
2022-10-23T13:09:52.923Z,100149.66
2022-10-23T13:15:03.532Z,100149.53
2022-10-23T13:20:11.295Z,100138.50
2022-10-23T13:25:22.676Z,100139.84
2022-10-23T13:30:34.711Z,100138.84
2022-10-23T13:35:37.756Z,100140.34
2022-10-23T13:40:40.479Z,100128.81
2022-10-23T13:45:44.554Z,100119.34
2022-10-23T13:50:47.457Z,100124.50
2022-10-23T13:55:53.654Z,100114.88
2022-10-23T14:01:00.395Z,100103.28
2022-10-23T14:06:03.179Z,100104.41
2022-10-23T14:11:05.963Z,100103.44
2022-10-23T14:16:10.503Z,100097.66
2022-10-23T14:21:15.300Z,100089.59
2022-10-23T14:26:20.397Z,100089.59
2022-10-23T14:31:24.535Z,100084.53
2022-10-23T14:36:34.269Z,100062.47
2022-10-23T14:41:46.396Z,100050.75
2022-10-23T14:46:50.401Z,100047.59
2022-10-23T14:51:53.401Z,100046.38
2022-10-23T14:56:56.263Z,100052.59
2022-10-23T15:02:00.247Z,100050.50
2022-10-23T15:07:03.077Z,100049.78
2022-10-23T15:12:06.396Z,100046.13
2022-10-23T15:17:15.464Z,100036.22
2022-10-23T15:22:19.507Z,100037.06
2022-10-23T15:27:22.202Z,100040.66
2022-10-23T15:32:26.270Z,100034.16
2022-10-23T15:37:28.932Z,100028.16
2022-10-23T15:42:31.592Z,100026.47
2022-10-23T15:47:35.745Z,100005.97
2022-10-23T15:52:38.625Z,100016.47
2022-10-23T15:57:41.510Z,100008.88
2022-10-23T16:02:46.022Z,100001.56
2022-10-23T16:07:49.171Z,100002.13
2022-10-23T16:12:51.925Z,99990.66
2022-10-23T16:17:55.932Z,99974.59
2022-10-23T16:22:58.583Z,99964.19
2022-10-23T16:28:01.233Z,99949.09
2022-10-23T16:33:05.326Z,99925.50
2022-10-23T16:38:08.093Z,99921.31
2022-10-23T16:43:10.805Z,99935.91
2022-10-23T16:48:20.894Z,99930.81
2022-10-23T16:53:26.670Z,99925.44
2022-10-23T16:58:29.320Z,99917.22
2022-10-23T17:03:34.683Z,99902.94
2022-10-23T17:08:37.520Z,99900.13
2022-10-23T17:13:42.022Z,99889.91
2022-10-23T17:18:46.196Z,99891.75
2022-10-23T17:23:48.994Z,99909.31
2022-10-23T17:28:51.746Z,99913.59
2022-10-23T17:33:57.474Z,99909.91
2022-10-23T17:39:00.146Z,99903.22
2022-10-23T17:44:02.926Z,99898.41
2022-10-23T17:49:07.066Z,99886.94
2022-10-23T17:54:11.123Z,99903.94
2022-10-23T17:59:14.751Z,99893.03
2022-10-23T18:04:19.287Z,99886.69
2022-10-23T18:09:22.247Z,99878.31
2022-10-23T18:14:27.268Z,99867.84
2022-10-23T18:19:33.572Z,99862.03
2022-10-23T18:24:37.930Z,99843.34
2022-10-23T18:29:43.350Z,99839.94
2022-10-23T18:34:47.506Z,99835.56
2022-10-23T18:39:50.239Z,99837.81
2022-10-23T18:44:53.121Z,99837.25
2022-10-23T18:49:57.251Z,99835.09
2022-10-23T18:55:00.245Z,99829.88
2022-10-23T19:00:03.560Z,99830.56
2022-10-23T19:05:08.800Z,99834.81
2022-10-23T19:10:13.494Z,99829.03
2022-10-23T19:15:16.306Z,99829.31
2022-10-23T19:20:20.411Z,99816.81
2022-10-23T19:25:25.253Z,99815.00
2022-10-23T19:30:27.897Z,99804.94
2022-10-23T19:35:31.938Z,99784.09
2022-10-23T19:40:34.630Z,99772.66
2022-10-23T19:45:38.031Z,99756.50
2022-10-23T19:50:43.804Z,99757.91
2022-10-23T19:55:46.527Z,99736.38
2022-10-23T20:00:49.493Z,99756.47
2022-10-23T20:05:53.575Z,99758.16
2022-10-23T20:15:59.900Z,99754.47
2022-10-23T20:21:04.110Z,99757.16
2022-10-23T20:26:07.205Z,99768.94
2022-10-23T20:31:10.354Z,99816.25
2022-10-23T20:36:23.623Z,99839.34
2022-10-23T20:41:28.401Z,99858.91
2022-10-23T20:46:31.096Z,99878.31
2022-10-23T20:51:36.078Z,99889.47
2022-10-23T20:56:39.712Z,99905.50
2022-10-23T21:01:42.914Z,99925.06
2022-10-23T21:07:08.369Z,99943.31
2022-10-23T21:12:10.032Z,99954.53
2022-10-23T21:17:16.798Z,99933.84
2022-10-23T21:22:20.882Z,99973.50
2022-10-23T21:27:23.567Z,99976.34
2022-10-23T21:32:26.289Z,99995.28
2022-10-23T21:37:30.268Z,99983.56
2022-10-23T21:42:33.610Z,99978.03
2022-10-23T21:47:36.391Z,99983.56
2022-10-23T21:52:41.641Z,99971.78
2022-10-23T21:57:44.484Z,99973.06
2022-10-23T22:02:47.561Z,99980.13
2022-10-23T22:07:52.000Z,99968.66
2022-10-23T22:12:54.670Z,99958.19
2022-10-23T22:17:57.447Z,99956.63
2022-10-23T22:23:01.520Z,99926.59
2022-10-23T22:28:04.213Z,99898.84
2022-10-23T22:33:06.918Z,99920.66
2022-10-23T22:38:10.945Z,99938.50
2022-10-23T22:43:13.597Z,99939.34
2022-10-23T22:48:16.223Z,99934.66
2022-10-23T22:53:20.365Z,99938.03
2022-10-23T22:58:23.185Z,99936.34
2022-10-23T23:03:26.131Z,99934.94
2022-10-23T23:08:30.275Z,99930.25
2022-10-23T23:13:32.934Z,99929.56
2022-10-23T23:18:35.659Z,99917.09
2022-10-23T23:23:39.691Z,99908.44
2022-10-23T23:28:42.365Z,99915.66
2022-10-23T23:33:45.818Z,99911.84
2022-10-23T23:38:49.888Z,99918.34
2022-10-23T23:43:53.964Z,99914.97
2022-10-23T23:48:56.611Z,99920.19
2022-10-23T23:54:00.565Z,99916.09
2022-10-23T23:59:03.399Z,99935.91
